Time;durP1;ratioP1;P1;durP2;ratioP2;P2;SDS_P1;SDS_P2;PMS_P1;PMS_P2;Temp;Humidity;BMP_temperature;BMP_pressure;BME280_temperature;BME280_humidity;BME280_pressure;Samples;Min_cycle;Max_cycle;Signal;HPM_P1;HPM_P2
2022/07/26 00:01:31;;;;;;;;;1.75;1.75;;;;;19.75;57.72;100862.59;4998177;28;45229;-73
2022/07/26 00:03:57;;;;;;;;;1.25;1.25;;;;;19.73;57.90;100861.88;4997878;28;46439;-72
2022/07/26 00:06:24;;;;;;;;;0.00;0.00;;;;;19.68;58.26;100857.72;4996343;28;45341;-71
2022/07/26 00:08:49;;;;;;;;;0.50;0.50;;;;;19.67;57.96;100861.34;4997205;28;45323;-70
2022/07/26 00:11:15;;;;;;;;;0.00;0.00;;;;;19.62;58.04;100854.69;4997108;28;45508;-68
2022/07/26 00:13:40;;;;;;;;;1.00;1.00;;;;;19.64;58.27;100850.91;4996820;28;45448;-67
2022/07/26 00:16:06;;;;;;;;;1.00;1.00;;;;;19.63;58.05;100859.88;4996845;28;45422;-70
2022/07/26 00:18:32;;;;;;;;;1.00;1.00;;;;;19.57;58.07;100849.66;4997335;28;45711;-70
2022/07/26 00:20:57;;;;;;;;;1.00;1.00;;;;;19.58;58.27;100853.19;4997105;28;45661;-69
2022/07/26 00:23:22;;;;;;;;;1.75;1.75;;;;;19.58;58.18;100854.03;4996748;28;46081;-71
2022/07/26 00:25:48;;;;;;;;;1.00;1.00;;;;;19.58;58.34;100862.03;4995499;28;45384;-71
2022/07/26 00:28:13;;;;;;;;;2.00;2.00;;;;;19.55;58.69;100857.78;4996858;28;45751;-68
2022/07/26 00:30:39;;;;;;;;;2.50;2.50;;;;;19.56;58.63;100862.13;4997004;28;45394;-62
2022/07/26 00:33:05;;;;;;;;;0.50;0.50;;;;;19.55;58.57;100857.78;4995716;28;46380;-65
2022/07/26 00:35:31;;;;;;;;;0.00;0.00;;;;;19.52;58.59;100868.66;4996923;28;45252;-65
2022/07/26 00:37:57;;;;;;;;;2.50;2.50;;;;;19.48;58.81;100853.84;4996464;28;45320;-66
2022/07/26 00:40:22;;;;;;;;;1.25;1.00;;;;;19.47;59.00;100860.16;4996610;28;45196;-64
2022/07/26 00:42:48;;;;;;;;;3.00;3.00;;;;;19.46;58.97;100858.44;4996553;28;45374;-68
2022/07/26 00:45:15;;;;;;;;;1.00;1.00;;;;;19.46;58.74;100853.13;4996368;28;45310;-63
2022/07/26 00:47:40;;;;;;;;;1.00;1.00;;;;;19.45;58.52;100851.41;4996462;28;45376;-64
2022/07/26 00:50:10;;;;;;;;;1.50;1.50;;;;;19.45;58.93;100861.25;4996675;28;45365;-66
2022/07/26 00:52:36;;;;;;;;;2.00;2.00;;;;;19.47;58.60;100859.31;4996482;28;45324;-68
2022/07/26 00:55:01;;;;;;;;;3.25;3.25;;;;;19.47;58.62;100854.81;4996379;28;45290;-63
2022/07/26 00:57:28;;;;;;;;;0.75;0.75;;;;;19.48;58.83;100853.84;4996690;28;45255;-63
2022/07/26 00:59:53;;;;;;;;;1.00;1.00;;;;;19.48;59.10;100853.84;4996663;28;45487;-63
2022/07/26 01:02:19;;;;;;;;;1.75;1.75;;;;;19.47;59.29;100859.31;4994746;28;46049;-65
2022/07/26 01:04:44;;;;;;;;;1.25;1.25;;;;;19.41;59.21;100856.13;4996427;28;45372;-66
2022/07/26 01:07:12;;;;;;;;;2.00;2.00;;;;;19.35;59.37;100859.25;4996530;28;45381;-63
2022/07/26 01:09:38;;;;;;;;;1.00;1.00;;;;;19.30;59.45;100848.06;4996501;28;45554;-65
2022/07/26 01:12:03;;;;;;;;;1.50;1.50;;;;;19.31;59.28;100856.91;4996353;28;46144;-63
2022/07/26 01:14:29;;;;;;;;;2.00;2.00;;;;;19.28;59.07;100850.00;4996447;28;45267;-63
2022/07/26 01:16:55;;;;;;;;;2.00;2.00;;;;;19.26;59.20;100846.59;4996508;28;45379;-69
2022/07/26 01:19:21;;;;;;;;;0.00;0.00;;;;;19.25;59.18;100848.41;4996624;28;45213;-63
2022/07/26 01:21:46;;;;;;;;;2.00;2.00;;;;;19.24;59.51;100849.34;4995925;28;46447;-67
2022/07/26 01:24:12;;;;;;;;;2.00;2.00;;;;;19.23;59.38;100845.00;4995771;28;45289;-70
2022/07/26 01:26:37;;;;;;;;;2.50;2.50;;;;;19.25;59.46;100842.22;4996127;28;45246;-66
2022/07/26 01:29:03;;;;;;;;;1.00;1.00;;;;;19.27;59.45;100853.63;4996199;28;45226;-68
2022/07/26 01:31:29;;;;;;;;;1.25;1.25;;;;;19.25;59.86;100851.06;5027402;28;46719;-69
2022/07/26 01:33:54;;;;;;;;;1.00;1.00;;;;;19.20;60.01;100847.88;4995677;28;45474;-68
2022/07/26 01:36:20;;;;;;;;;0.75;0.75;;;;;19.18;59.85;100852.47;4995249;28;45486;-64
2022/07/26 01:38:45;;;;;;;;;3.00;3.00;;;;;19.11;59.59;100836.09;4995905;28;45265;-72
2022/07/26 01:41:11;;;;;;;;;2.75;2.75;;;;;19.15;59.60;100846.53;4994150;28;47188;-71
2022/07/26 01:43:37;;;;;;;;;1.00;1.00;;;;;19.14;59.76;100844.81;4996060;28;45333;-66
2022/07/26 01:46:04;;;;;;;;;2.00;2.00;;;;;19.10;59.95;100850.38;4997284;28;45285;-69
2022/07/26 01:48:30;;;;;;;;;2.00;2.00;;;;;19.06;60.32;100843.53;4996124;28;45290;-70
2022/07/26 01:50:56;;;;;;;;;0.75;0.75;;;;;19.02;60.38;100839.38;4995532;28;45475;-70
2022/07/26 01:53:21;;;;;;;;;2.00;2.00;;;;;19.06;60.38;100840.03;4995107;28;45326;-69
2022/07/26 01:55:47;;;;;;;;;2.00;2.00;;;;;19.06;59.91;100842.69;4995434;28;45316;-65
2022/07/26 01:58:12;;;;;;;;;2.00;2.00;;;;;19.05;59.71;100846.31;4995490;28;45325;-68
2022/07/26 02:00:38;;;;;;;;;1.75;1.75;;;;;19.05;60.13;100844.50;4995378;28;45370;-67
2022/07/26 02:03:03;;;;;;;;;2.00;2.00;;;;;19.04;60.22;100836.63;4995198;28;45226;-67
2022/07/26 02:05:29;;;;;;;;;1.25;1.25;;;;;19.04;60.13;100840.13;4995324;28;45231;-70
2022/07/26 02:07:54;;;;;;;;;1.00;1.00;;;;;19.06;60.13;100837.38;4995298;28;45321;-69
2022/07/26 02:10:19;;;;;;;;;1.25;1.25;;;;;19.03;60.33;100830.44;4995117;28;46348;-70
2022/07/26 02:12:45;;;;;;;;;2.00;2.00;;;;;19.05;60.00;100841.81;4993343;28;45378;-73
2022/07/26 02:15:11;;;;;;;;;1.00;1.00;;;;;19.05;60.02;100838.31;4995158;28;45257;-64
2022/07/26 02:17:37;;;;;;;;;2.00;2.00;;;;;19.04;60.08;100847.28;4995415;28;45342;-60
2022/07/26 02:20:03;;;;;;;;;2.00;2.00;;;;;19.02;60.30;100839.38;4994798;28;45595;-60
2022/07/26 02:22:29;;;;;;;;;1.75;1.75;;;;;19.00;60.26;100843.97;4994920;28;45349;-64
2022/07/26 02:24:54;;;;;;;;;0.50;0.50;;;;;18.98;60.36;100843.22;4995190;28;45494;-65
2022/07/26 02:27:19;;;;;;;;;2.00;2.00;;;;;18.96;60.61;100846.00;4995175;28;45596;-68
2022/07/26 02:29:45;;;;;;;;;1.25;1.25;;;;;18.96;60.39;100847.78;4994896;28;45628;-72
2022/07/26 02:32:10;;;;;;;;;1.50;1.50;;;;;18.95;60.61;100848.75;4994880;28;45325;-63
2022/07/26 02:34:36;;;;;;;;;2.00;2.00;;;;;18.92;60.50;100851.63;4995340;28;45380;-60
2022/07/26 02:37:02;;;;;;;;;2.25;2.25;;;;;18.91;60.93;100850.81;4995076;28;45182;-65
2022/07/26 02:39:27;;;;;;;;;1.00;1.00;;;;;18.84;61.06;100847.72;4994649;28;45384;-61
2022/07/26 02:41:55;;;;;;;;;0.00;0.00;;;;;18.82;61.17;100854.97;4994651;28;45226;-61
2022/07/26 02:44:20;;;;;;;;;2.75;2.75;;;;;18.80;61.13;100848.88;4995116;28;45433;-69
2022/07/26 02:46:46;;;;;;;;;2.00;2.00;;;;;18.79;61.03;100849.00;4995608;28;45488;-69
2022/07/26 02:49:11;;;;;;;;;1.75;1.75;;;;;18.74;61.44;100844.00;4996628;28;46198;-68
2022/07/26 02:51:36;;;;;;;;;2.50;2.50;;;;;18.78;61.39;100841.97;4999062;28;45341;-67
2022/07/26 02:54:02;;;;;;;;;2.00;2.00;;;;;18.75;61.73;100852.84;4998397;28;45414;-69
2022/07/26 02:56:28;;;;;;;;;2.00;2.00;;;;;18.76;61.60;100851.88;4998494;28;45512;-69
2022/07/26 02:58:53;;;;;;;;;2.00;2.00;;;;;18.73;61.99;100854.78;4998006;28;46699;-70
2022/07/26 03:01:18;;;;;;;;;2.50;2.50;;;;;18.74;61.92;100865.31;4997962;28;45341;-73
2022/07/26 03:03:44;;;;;;;;;2.00;2.00;;;;;18.75;62.00;100866.19;4998239;28;45401;-72
2022/07/26 03:06:09;;;;;;;;;1.25;1.25;;;;;18.72;62.15;100853.06;4998672;28;45360;-67
2022/07/26 03:08:34;;;;;;;;;2.00;2.00;;;;;18.72;61.85;100864.56;4997923;28;45356;-64
2022/07/26 03:11:00;;;;;;;;;2.00;2.00;;;;;18.68;62.14;100858.63;4997867;28;45258;-68
2022/07/26 03:13:25;;;;;;;;;2.50;2.50;;;;;18.68;62.24;100860.41;4996385;28;45298;-64
2022/07/26 03:15:50;;;;;;;;;1.25;1.25;;;;;18.66;62.29;100857.88;4998201;28;45626;-63
2022/07/26 03:18:16;;;;;;;;;1.00;1.00;;;;;18.65;62.62;100860.63;4997562;28;46142;-63
2022/07/26 03:20:41;;;;;;;;;1.75;1.75;;;;;18.61;62.83;100859.13;4997983;28;45179;-62
2022/07/26 03:23:06;;;;;;;;;1.00;1.00;;;;;18.57;63.22;100865.63;4997860;28;45266;-62
2022/07/26 03:25:32;;;;;;;;;2.00;2.00;;;;;18.53;63.29;100865.84;4996389;28;45281;-65
2022/07/26 03:27:57;;;;;;;;;3.50;3.50;;;;;18.46;63.46;100859.25;4997496;28;46277;-63
2022/07/26 03:30:23;;;;;;;;;1.25;1.25;;;;;18.49;63.43;100874.16;4997501;28;45502;-67
2022/07/26 03:32:48;;;;;;;;;2.25;2.25;;;;;18.42;64.03;100868.41;4997609;28;45293;-63
2022/07/26 03:35:14;;;;;;;;;2.25;2.25;;;;;18.38;63.91;100862.44;4997927;28;45532;-61
2022/07/26 03:37:39;;;;;;;;;2.75;2.75;;;;;18.31;64.26;100852.31;4997687;28;45218;-61
2022/07/26 03:40:07;;;;;;;;;2.50;2.50;;;;;18.34;64.55;100868.09;4997439;28;45437;-65
2022/07/26 03:42:33;;;;;;;;;2.00;1.75;;;;;18.36;64.34;100874.16;4997380;28;45420;-62
2022/07/26 03:44:58;;;;;;;;;2.00;2.00;;;;;18.38;64.70;100880.22;4997605;28;45512;-64
2022/07/26 03:47:23;;;;;;;;;4.25;4.25;;;;;18.38;64.54;100880.22;4997330;28;46359;-65
2022/07/26 03:49:49;;;;;;;;;2.00;2.00;;;;;18.37;64.59;100870.53;4997515;28;45313;-63
2022/07/26 03:52:14;;;;;;;;;3.00;3.00;;;;;18.41;64.70;100869.38;4997033;28;45525;-62
2022/07/26 03:54:39;;;;;;;;;3.25;3.25;;;;;18.42;64.57;100878.19;4997761;28;45456;-61
2022/07/26 03:57:05;;;;;;;;;2.00;2.00;;;;;18.39;64.77;100879.28;4997080;28;45487;-60
2022/07/26 03:59:30;;;;;;;;;2.25;2.25;;;;;18.43;64.56;100874.56;4996880;28;45424;-69
2022/07/26 04:01:56;;;;;;;;;3.25;3.25;;;;;18.44;64.54;100874.47;4997276;28;45413;-67
2022/07/26 04:04:21;;;;;;;;;3.00;3.00;;;;;18.49;64.60;100874.16;4997257;28;45562;-72
2022/07/26 04:06:47;;;;;;;;;2.25;2.25;;;;;18.53;64.62;100880.97;4995461;28;46777;-72
2022/07/26 04:09:13;;;;;;;;;2.50;2.50;;;;;18.57;64.61;100879.81;4997469;28;45289;-74
2022/07/26 04:11:40;;;;;;;;;2.00;2.00;;;;;18.61;64.27;100888.44;4996943;28;45404;-73
2022/07/26 04:14:05;;;;;;;;;2.25;2.25;;;;;18.66;64.38;100878.31;4997140;28;46016;-73
2022/07/26 04:16:31;;;;;;;;;2.00;2.00;;;;;18.72;64.12;100879.72;4996542;28;46986;-73
2022/07/26 04:18:56;;;;;;;;;2.50;2.50;;;;;18.77;64.54;100882.91;4996923;28;45351;-72
2022/07/26 04:21:22;;;;;;;;;2.00;2.00;;;;;18.81;64.42;100887.06;4996661;28;45459;-73
2022/07/26 04:23:48;;;;;;;;;3.00;3.00;;;;;18.85;64.10;100880.56;4997038;28;45369;-71
2022/07/26 04:26:13;;;;;;;;;2.50;2.50;;;;;18.90;63.85;100881.09;4996864;28;45575;-64
2022/07/26 04:28:40;;;;;;;;;2.75;2.75;;;;;18.94;64.20;100889.69;4995620;28;45443;-67
2022/07/26 04:31:06;;;;;;;;;2.50;2.50;;;;;18.92;64.01;100881.81;4996885;28;45507;-63
2022/07/26 04:33:31;;;;;;;;;3.50;3.50;;;;;18.94;64.12;100879.03;4996738;28;45547;-62
2022/07/26 04:35:57;;;;;;;;;4.25;4.25;;;;;18.93;64.17;100872.00;4996382;28;45454;-64
2022/07/26 04:38:23;;;;;;;;;3.75;3.75;;;;;18.98;64.14;100875.22;4996348;28;45324;-66
2022/07/26 04:40:49;;;;;;;;;3.00;3.00;;;;;19.01;64.10;100883.00;4996755;28;45200;-66
2022/07/26 04:43:15;;;;;;;;;2.00;2.00;;;;;19.04;64.06;100887.28;4997462;28;45349;-61
2022/07/26 04:45:40;;;;;;;;;3.00;3.00;;;;;19.06;63.78;100885.34;4997423;28;45280;-63
2022/07/26 04:48:06;;;;;;;;;3.25;3.25;;;;;19.11;64.21;100886.75;4995481;28;45388;-60
2022/07/26 04:50:31;;;;;;;;;3.25;3.25;;;;;19.15;63.94;100892.69;4996473;28;45363;-59
2022/07/26 04:52:56;;;;;;;;;2.75;2.75;;;;;19.12;63.92;100891.09;4996700;28;45575;-65
2022/07/26 04:55:22;;;;;;;;;2.50;2.50;;;;;19.13;64.23;100891.94;4996060;28;45322;-60
2022/07/26 04:57:48;;;;;;;;;2.25;2.25;;;;;19.17;63.91;100887.25;4996204;28;45471;-63
2022/07/26 05:00:20;;;;;;;;;3.00;3.00;;;;;19.22;64.71;100901.13;4996708;28;45300;-61
2022/07/26 05:02:45;;;;;;;;;3.00;3.00;;;;;19.26;63.75;100891.94;5004247;28;45658;-67
2022/07/26 05:05:10;;;;;;;;;4.25;4.25;;;;;19.33;64.32;100895.00;5015593;28;45347;-64
2022/07/26 05:07:46;;;;;;;;;2.00;2.00;;;;;19.37;63.72;100900.00;5016057;28;45347;-65
2022/07/26 05:10:13;;;;;;;;;3.50;3.50;;;;;19.43;64.05;100906.69;5015905;28;45344;-65
2022/07/26 05:12:39;;;;;;;;;3.00;3.00;;;;;19.47;63.75;100910.00;5015158;28;45312;-62
2022/07/26 05:15:05;;;;;;;;;3.75;3.75;;;;;19.48;63.62;100903.72;5015628;28;45791;-60
2022/07/26 05:17:31;;;;;;;;;3.25;3.25;;;;;19.51;63.40;100901.66;5015754;28;45398;-63
2022/07/26 05:19:57;;;;;;;;;2.00;2.00;;;;;19.54;63.12;100903.25;5015666;28;45370;-61
2022/07/26 05:22:22;;;;;;;;;2.25;2.25;;;;;19.54;63.36;100913.94;5014344;28;45292;-62
2022/07/26 05:24:47;;;;;;;;;2.50;2.50;;;;;19.53;63.61;100913.06;5015882;28;46178;-63
2022/07/26 05:27:13;;;;;;;;;2.75;2.75;;;;;19.50;63.47;100909.78;5015833;28;45351;-60
2022/07/26 05:29:38;;;;;;;;;3.25;3.25;;;;;19.52;63.44;100921.19;5015823;28;45561;-63
2022/07/26 05:32:04;;;;;;;;;2.00;2.00;;;;;19.51;63.98;100916.81;5015696;28;45317;-65
2022/07/26 05:34:29;;;;;;;;;2.75;2.75;;;;;19.52;63.35;100921.19;5015431;28;46123;-69
2022/07/26 05:36:55;;;;;;;;;3.50;3.50;;;;;19.52;63.91;100924.69;5015202;28;48054;-66
2022/07/26 05:39:21;;;;;;;;;3.00;3.00;;;;;19.53;63.40;100917.56;5015482;28;45363;-65
2022/07/26 05:41:46;;;;;;;;;4.75;4.50;;;;;19.56;63.93;100922.66;5015760;28;45272;-73
2022/07/26 05:44:11;;;;;;;;;3.25;3.25;;;;;19.58;63.58;100920.75;5015346;28;45407;-68
2022/07/26 05:46:37;;;;;;;;;9.25;9.25;;;;;19.60;63.12;100917.94;5013561;28;45374;-73
2022/07/26 05:49:03;;;;;;;;;5.00;5.00;;;;;19.63;63.43;100923.09;5015637;28;45412;-65
2022/07/26 05:51:29;;;;;;;;;3.75;3.75;;;;;19.65;63.57;100921.16;5015660;28;45445;-66
2022/07/26 05:53:55;;;;;;;;;4.25;4.00;;;;;19.67;63.47;100920.06;5014953;28;46102;-65
2022/07/26 05:56:20;;;;;;;;;3.75;3.75;;;;;19.68;63.45;100923.59;5015402;28;45727;-66
2022/07/26 05:58:46;;;;;;;;;3.25;3.25;;;;;19.72;63.28;100922.41;5015851;28;45395;-64
2022/07/26 06:01:11;;;;;;;;;4.00;4.00;;;;;19.73;63.25;100920.59;5015155;28;45613;-65
2022/07/26 06:03:37;;;;;;;;;2.50;2.50;;;;;19.78;63.41;100926.44;5014988;28;46348;-67
2022/07/26 06:06:02;;;;;;;;;4.00;3.50;;;;;19.82;63.04;100934.09;5015098;28;45526;-73
2022/07/26 06:08:28;;;;;;;;;5.00;5.00;;;;;19.89;63.08;100926.47;5015115;28;45218;-63
2022/07/26 06:10:53;;;;;;;;;3.50;3.50;;;;;19.92;62.96;100926.28;5015339;28;45340;-70
2022/07/26 06:13:19;;;;;;;;;4.25;4.25;;;;;19.98;62.42;100928.50;5014842;28;45290;-74
2022/07/26 06:15:45;;;;;;;;;5.00;5.00;;;;;19.98;62.37;100931.16;5014665;28;45313;-69
2022/07/26 06:18:10;;;;;;;;;4.00;4.00;;;;;19.99;62.88;100934.69;5014643;28;45340;-67
2022/07/26 06:20:41;;;;;;;;;3.00;3.00;;;;;19.99;62.23;100930.19;5014910;28;45606;-69
2022/07/26 06:23:07;;;;;;;;;4.25;4.25;;;;;20.04;62.66;100942.34;5014734;28;45383;-68
2022/07/26 06:25:33;;;;;;;;;3.25;3.25;;;;;20.05;62.18;100944.06;5014722;28;45630;-73
2022/07/26 06:28:00;;;;;;;;;4.00;4.00;;;;;20.08;62.56;100943.81;5015406;28;45276;-77
2022/07/26 06:30:25;;;;;;;;;5.75;5.25;;;;;20.07;62.26;100943.00;5013611;28;45288;-72
2022/07/26 06:32:51;;;;;;;;;2.25;2.25;;;;;20.05;62.11;100947.59;5013396;28;46616;-70
2022/07/26 06:35:16;;;;;;;;;4.50;4.50;;;;;20.03;62.28;100948.66;5009698;28;45549;-70
2022/07/26 06:37:42;;;;;;;;;3.50;3.50;;;;;19.99;62.18;100942.72;5009974;28;45387;-65
2022/07/26 06:40:09;;;;;;;;;3.00;3.00;;;;;20.02;62.46;100950.50;5012401;28;45462;-70
2022/07/26 06:42:35;;;;;;;;;3.25;2.75;;;;;20.00;62.51;100947.91;5028942;28;45530;-67
2022/07/26 06:45:00;;;;;;;;;3.50;3.50;;;;;20.04;62.24;100953.03;5034402;28;45459;-66
2022/07/26 06:47:26;;;;;;;;;4.50;4.50;;;;;20.02;62.04;100954.97;5034003;28;45206;-67
2022/07/26 06:49:52;;;;;;;;;3.00;3.00;;;;;20.04;61.98;100947.69;5013191;28;45277;-63
2022/07/26 06:52:17;;;;;;;;;4.00;4.00;;;;;20.10;62.60;100953.44;5013369;28;46608;-71
2022/07/26 06:54:43;;;;;;;;;4.00;4.00;;;;;20.18;62.06;100955.56;5008270;28;45806;-73
2022/07/26 06:57:08;;;;;;;;;3.00;3.00;;;;;20.20;61.84;100947.41;4994361;28;45424;-69
2022/07/26 06:59:34;;;;;;;;;5.00;5.00;;;;;20.24;61.80;100949.75;5009401;28;45350;-65
2022/07/26 07:02:00;;;;;;;;;4.25;4.25;;;;;20.26;61.88;100947.81;5012634;28;46224;-71
2022/07/26 07:04:30;;;;;;;;;3.25;3.25;;;;;20.16;61.91;100929.91;5013689;28;45476;-67
2022/07/26 07:06:56;;;;;;;;;3.50;3.50;;;;;20.23;61.52;100934.69;5012896;28;45250;-66
2022/07/26 07:09:23;;;;;;;;;3.50;3.50;;;;;20.43;61.62;100954.53;5018486;28;45642;-69
2022/07/26 07:11:48;;;;;;;;;3.00;3.00;;;;;20.51;61.02;100948.63;5015347;28;45415;-67
2022/07/26 07:14:15;;;;;;;;;2.75;2.75;;;;;20.54;61.18;100951.03;5018603;28;45542;-65
2022/07/26 07:16:40;;;;;;;;;3.00;3.00;;;;;20.66;60.68;100949.22;5017266;28;45511;-70
2022/07/26 07:19:05;;;;;;;;;4.75;4.75;;;;;20.74;60.75;100959.34;5013542;28;45312;-69
2022/07/26 07:21:32;;;;;;;;;3.50;3.50;;;;;20.82;60.20;100962.31;5013453;28;46539;-72
2022/07/26 07:23:58;;;;;;;;;3.00;3.00;;;;;20.82;60.20;100964.13;5011638;28;45476;-72
2022/07/26 07:26:24;;;;;;;;;3.75;3.75;;;;;20.79;59.56;100959.03;5011150;28;45707;-67
2022/07/26 07:28:49;;;;;;;;;3.50;3.50;;;;;20.77;59.47;100959.09;5012645;28;45526;-61
2022/07/26 07:31:14;;;;;;;;;4.50;4.50;;;;;20.84;59.68;100967.53;5011872;28;45788;-65
2022/07/26 07:33:40;;;;;;;;;5.00;5.00;;;;;20.81;60.19;100968.63;5013561;28;45414;-67
2022/07/26 07:36:05;;;;;;;;;6.00;6.00;;;;;20.81;59.75;100968.63;5016472;28;45334;-69
2022/07/26 07:38:30;;;;;;;;;4.00;3.00;;;;;20.90;59.66;100968.88;5015064;28;45663;-65
2022/07/26 07:40:56;;;;;;;;;4.50;4.50;;;;;20.91;59.61;100962.56;5016197;28;45626;-68
2022/07/26 07:43:21;;;;;;;;;3.25;3.25;;;;;20.99;59.16;100965.47;5015820;28;45872;-68
2022/07/26 07:45:47;;;;;;;;;3.25;3.25;;;;;21.10;59.56;100962.81;5017267;28;45304;-70
2022/07/26 07:48:12;;;;;;;;;3.25;3.25;;;;;21.20;58.62;100967.44;5017582;28;45494;-63
2022/07/26 07:50:37;;;;;;;;;4.00;3.50;;;;;21.22;58.04;100966.34;5016767;28;46619;-66
2022/07/26 07:53:03;;;;;;;;;4.00;4.00;;;;;21.27;58.14;100974.84;5016704;28;45248;-65
2022/07/26 07:55:28;;;;;;;;;2.00;2.00;;;;;21.28;57.66;100965.03;5016730;28;45376;-66
2022/07/26 07:57:53;;;;;;;;;3.25;3.25;;;;;21.30;57.65;100973.78;5017380;28;45575;-65
2022/07/26 08:00:19;;;;;;;;;3.50;3.50;;;;;21.37;57.60;100974.13;5016669;28;46196;-66
2022/07/26 08:02:45;;;;;;;;;3.00;3.00;;;;;21.39;57.10;100973.03;5017062;28;45301;-67
2022/07/26 08:05:11;;;;;;;;;1.50;1.50;;;;;21.40;56.81;100971.19;5017018;28;45389;-66
2022/07/26 08:07:37;;;;;;;;;2.00;2.00;;;;;21.44;57.01;100976.19;5017060;28;45355;-69
2022/07/26 08:10:03;;;;;;;;;3.25;3.25;;;;;21.47;56.46;100974.25;5016526;28;46253;-70
2022/07/26 08:12:28;;;;;;;;;3.00;3.00;;;;;21.53;56.67;100979.09;5016449;28;45458;-68
2022/07/26 08:14:54;;;;;;;;;1.50;1.50;;;;;21.58;55.87;100972.38;5017117;28;45334;-70
2022/07/26 08:17:19;;;;;;;;;3.25;3.25;;;;;21.64;55.80;100979.13;5016690;28;45506;-69
2022/07/26 08:19:44;;;;;;;;;2.00;2.00;;;;;21.71;55.57;100976.78;5015123;28;47570;-69
2022/07/26 08:22:10;;;;;;;;;4.75;4.75;;;;;21.83;55.05;100981.16;5016521;28;45418;-69
2022/07/26 08:24:35;;;;;;;;;4.00;4.00;;;;;21.96;55.25;100982.81;5016540;28;45301;-70
2022/07/26 08:27:01;;;;;;;;;1.50;1.50;;;;;22.13;54.69;100981.41;5016874;28;45280;-68
2022/07/26 08:29:27;;;;;;;;;3.00;3.00;;;;;22.27;53.92;100975.78;5016745;28;46119;-71
2022/07/26 08:31:52;;;;;;;;;0.00;0.00;;;;;22.41;52.53;100982.63;5016463;28;45348;-71
2022/07/26 08:34:18;;;;;;;;;3.00;3.00;;;;;22.55;52.83;100984.19;5016808;28;45509;-71
2022/07/26 08:36:44;;;;;;;;;1.25;1.25;;;;;22.69;52.45;100987.53;5016717;28;45289;-72
2022/07/26 08:39:09;;;;;;;;;1.75;1.75;;;;;22.72;51.88;100981.91;5016324;28;45614;-68
2022/07/26 08:41:35;;;;;;;;;3.00;2.00;;;;;22.72;51.93;100992.63;5016198;28;45252;-70
2022/07/26 08:44:08;;;;;;;;;2.50;2.00;;;;;22.74;51.87;100993.34;5016425;28;45333;-72
2022/07/26 08:46:38;;;;;;;;;2.00;2.00;;;;;22.78;51.83;100997.47;5015379;28;45546;-66
2022/07/26 08:49:05;;;;;;;;;4.25;4.25;;;;;22.90;51.46;100995.56;5016073;28;45998;-67
2022/07/26 08:51:32;;;;;;;;;2.00;2.00;;;;;22.97;51.34;100995.88;5016014;28;45435;-69
2022/07/26 08:53:59;;;;;;;;;3.25;3.25;;;;;23.05;50.91;100996.06;5016217;28;45246;-64
2022/07/26 08:56:25;;;;;;;;;12.00;12.00;;;;;23.07;50.74;100991.41;5016090;28;45188;-67
2022/07/26 08:58:50;;;;;;;;;3.25;2.50;;;;;22.97;50.55;100996.75;5015759;28;46161;-62
2022/07/26 09:01:16;;;;;;;;;3.00;3.00;;;;;23.00;50.94;100990.25;5016025;28;45462;-62
2022/07/26 09:03:43;;;;;;;;;3.50;3.50;;;;;23.08;51.14;100992.28;5015835;28;45423;-63
2022/07/26 09:06:22;;;;;;;;;2.00;2.00;;;;;23.12;51.13;100994.53;5016386;28;45304;-67
2022/07/26 09:08:50;;;;;;;;;1.00;1.00;;;;;23.30;50.90;101005.53;5014063;28;46817;-64
2022/07/26 09:11:27;;;;;;;;;3.00;3.00;;;;;23.32;50.64;101005.38;5015575;28;45561;-66
2022/07/26 09:14:03;;;;;;;;;2.00;2.00;;;;;23.25;50.26;101006.91;5015601;28;45329;-62
2022/07/26 09:16:29;;;;;;;;;2.25;2.25;;;;;23.16;50.23;101012.06;5014399;28;45370;-64
2022/07/26 09:19:14;;;;;;;;;2.50;2.50;;;;;23.09;50.06;101018.94;5014662;28;45403;-62
2022/07/26 09:21:40;;;;;;;;;1.25;1.25;;;;;23.06;49.68;101011.16;5015883;28;45469;-68
2022/07/26 09:24:05;;;;;;;;;3.00;3.00;;;;;23.11;49.77;101017.00;5015506;28;45416;-72
2022/07/26 09:26:31;;;;;;;;;2.00;2.00;;;;;23.16;49.54;101009.38;5015710;28;45588;-65
2022/07/26 09:29:08;;;;;;;;;3.25;3.25;;;;;23.18;48.91;101003.91;5015752;28;45676;-68
2022/07/26 09:31:35;;;;;;;;;2.00;2.00;;;;;23.21;48.19;101009.00;5013906;28;45430;-63
2022/07/26 09:34:03;;;;;;;;;2.50;2.50;;;;;23.15;48.59;101021.09;5014971;28;45261;-65
2022/07/26 09:36:29;;;;;;;;;0.25;0.25;;;;;23.13;48.85;101016.88;5015831;28;45665;-66
2022/07/26 09:39:00;;;;;;;;;3.50;3.00;;;;;23.15;48.65;101017.59;5015437;28;45981;-65
2022/07/26 09:41:28;;;;;;;;;3.00;3.00;;;;;23.16;48.74;101021.97;5015634;28;45447;-67
2022/07/26 09:43:57;;;;;;;;;3.75;3.75;;;;;23.18;48.65;101015.47;5015223;28;45489;-63
2022/07/26 09:46:24;;;;;;;;;3.00;3.00;;;;;23.31;49.24;101015.28;5015495;28;45639;-70
2022/07/26 09:48:51;;;;;;;;;2.75;2.75;;;;;23.51;48.42;101026.09;5015292;28;45648;-70
2022/07/26 09:51:35;;;;;;;;;2.75;2.75;;;;;23.63;47.63;101026.88;5015506;28;45412;-67
2022/07/26 09:54:00;;;;;;;;;2.75;2.75;;;;;23.66;47.66;101023.03;5015459;28;45423;-68
2022/07/26 09:56:42;;;;;;;;;2.00;2.00;;;;;23.66;48.03;101026.59;5013604;28;45509;-66
2022/07/26 09:59:08;;;;;;;;;2.75;2.75;;;;;23.63;47.58;101032.22;5014221;28;46570;-68
2022/07/26 10:01:33;;;;;;;;;2.50;2.50;;;;;23.62;47.14;101028.69;5014616;28;45359;-68
2022/07/26 10:03:58;;;;;;;;;2.75;2.75;;;;;23.63;46.47;101034.91;5015280;28;45415;-67
2022/07/26 10:06:24;;;;;;;;;3.00;3.00;;;;;23.67;47.75;101030.09;5014865;28;45210;-71
2022/07/26 10:08:50;;;;;;;;;2.25;2.25;;;;;23.72;47.00;101039.47;5014435;28;45397;-64
2022/07/26 10:11:19;;;;;;;;;3.00;3.00;;;;;23.75;47.17;101032.97;5014051;28;45443;-63
2022/07/26 10:13:45;;;;;;;;;4.00;4.00;;;;;23.89;47.13;101019.16;5014558;28;45233;-64
2022/07/26 10:16:36;;;;;;;;;3.00;3.00;;;;;24.02;46.70;101032.34;5014433;28;45307;-67
2022/07/26 10:19:03;;;;;;;;;4.00;4.00;;;;;24.07;46.59;101024.72;5015514;28;46317;-67
2022/07/26 10:21:29;;;;;;;;;4.00;4.00;;;;;24.14;46.14;101037.59;5014877;28;45281;-67
2022/07/26 10:23:56;;;;;;;;;3.25;2.75;;;;;24.15;46.00;101034.78;5014300;28;45304;-69
2022/07/26 10:26:31;;;;;;;;;2.00;2.00;;;;;24.23;45.58;101036.75;5013328;28;45483;-68
2022/07/26 10:29:14;;;;;;;;;1.00;1.00;;;;;24.23;45.63;101025.16;5014276;28;45451;-69
2022/07/26 10:31:40;;;;;;;;;4.00;4.00;;;;;24.21;44.91;101042.28;5014454;28;45426;-68
2022/07/26 10:34:06;;;;;;;;;2.00;2.00;;;;;24.22;43.96;101037.75;5014369;28;45279;-69
2022/07/26 10:36:35;;;;;;;;;5.00;5.00;;;;;24.38;43.93;101037.19;5014862;28;45568;-65
2022/07/26 10:39:12;;;;;;;;;0.00;0.00;;;;;24.60;43.12;101025.31;5014402;28;46395;-66
2022/07/26 10:41:39;;;;;;;;;2.75;2.75;;;;;24.77;42.58;101034.50;5014007;28;45412;-70
2022/07/26 10:44:23;;;;;;;;;1.75;1.75;;;;;24.89;41.78;101031.66;5013713;28;45422;-68
2022/07/26 10:47:01;;;;;;;;;1.00;1.00;;;;;25.09;41.84;101029.78;5014050;28;45485;-72
2022/07/26 10:49:53;;;;;;;;;2.00;2.00;;;;;25.23;41.13;101029.31;5013632;28;45699;-74
2022/07/26 10:52:25;;;;;;;;;0.50;0.50;;;;;25.44;41.21;101022.84;5013608;28;45499;-73
2022/07/26 10:55:03;;;;;;;;;0.75;0.75;;;;;25.60;39.45;101032.19;5014007;28;45418;-63
2022/07/26 10:57:33;;;;;;;;;0.00;0.00;;;;;25.58;38.51;101028.78;5013847;28;45546;-64
2022/07/26 10:59:59;;;;;;;;;0.25;0.25;;;;;25.54;38.63;101028.22;5013696;28;45336;-63
2022/07/26 11:02:31;;;;;;;;;3.25;3.25;;;;;25.59;39.20;101028.63;5014458;28;45357;-65
2022/07/26 11:05:00;;;;;;;;;3.25;3.25;;;;;25.78;38.45;101024.97;5013812;28;45379;-66
2022/07/26 11:07:26;;;;;;;;;2.00;2.00;;;;;26.05;37.80;101023.25;5014303;28;45730;-70
2022/07/26 11:09:57;;;;;;;;;2.00;2.00;;;;;26.31;37.93;101027.91;5014680;28;45406;-64
2022/07/26 11:12:23;;;;;;;;;0.75;0.75;;;;;26.43;38.10;101027.66;5017435;28;45239;-64
2022/07/26 11:14:49;;;;;;;;;2.00;2.00;;;;;26.49;38.44;101021.63;5017192;28;45171;-63
2022/07/26 11:17:26;;;;;;;;;1.00;1.00;;;;;26.35;38.76;101023.06;5017563;28;45535;-62
2022/07/26 11:19:52;;;;;;;;;4.25;4.25;;;;;26.25;38.70;101021.28;5017081;28;46573;-67
2022/07/26 11:22:18;;;;;;;;;1.00;1.00;;;;;26.17;38.53;101020.34;5017021;28;45391;-62